Time;durP1;ratioP1;P1;durP2;ratioP2;P2;SDS_P1;SDS_P2;PMS_P1;PMS_P2;Temp;Humidity;BMP_temperature;BMP_pressure;BME280_temperature;BME280_humidity;BME280_pressure;Samples;Min_cycle;Max_cycle;Signal;HPM_P1;HPM_P2
2021/06/12 00:00:14;;;;;;;2.00;1.80;;;;;;;19.41;63.62;99040.72;5083184;28;40877;-76
2021/06/12 00:02:41;;;;;;;1.43;1.33;;;;;;;19.47;63.97;99056.25;5052047;28;42713;-78
2021/06/12 00:05:10;;;;;;;2.00;1.20;;;;;;;19.44;64.09;99055.69;5091271;28;42390;-79
2021/06/12 00:07:38;;;;;;;1.40;1.30;;;;;;;19.41;63.92;99064.06;5070629;28;39793;-79
2021/06/12 00:10:07;;;;;;;1.97;1.60;;;;;;;19.38;63.92;99060.66;5071352;28;41616;-80
2021/06/12 00:12:36;;;;;;;1.10;1.10;;;;;;;19.35;63.80;99062.78;5088416;28;42663;-80
2021/06/12 00:15:06;;;;;;;1.60;1.50;;;;;;;19.24;63.66;99045.03;5084080;28;42320;-76
2021/06/12 00:17:33;;;;;;;0.97;0.97;;;;;;;19.30;64.28;99063.22;5049764;28;40764;-78
2021/06/12 00:20:00;;;;;;;1.50;1.40;;;;;;;19.17;64.08;99046.56;5087694;28;40886;-76
2021/06/12 00:22:27;;;;;;;1.23;1.23;;;;;;;19.23;64.46;99058.59;5070791;28;41918;-82
2021/06/12 00:24:54;;;;;;;1.30;1.10;;;;;;;19.24;64.61;99062.97;5070559;28;42113;-77
2021/06/12 00:27:21;;;;;;;1.60;1.50;;;;;;;19.20;65.48;99059.72;5071724;28;40333;-78
2021/06/12 00:29:50;;;;;;;1.50;1.40;;;;;;;19.18;65.32;99060.84;5066360;28;41739;-80
2021/06/12 00:32:17;;;;;;;1.37;1.27;;;;;;;19.15;65.33;99061.16;5084254;28;42372;-79
2021/06/12 00:34:45;;;;;;;1.67;1.43;;;;;;;19.12;65.42;99058.75;5051255;28;41949;-79
2021/06/12 00:37:13;;;;;;;1.60;1.50;;;;;;;19.10;65.54;99053.53;5049753;28;40861;-85
2021/06/12 00:39:40;;;;;;;1.40;1.30;;;;;;;19.03;66.02;99047.06;5083499;28;40832;-79
2021/06/12 00:42:07;;;;;;;1.73;1.63;;;;;;;19.07;66.11;99058.34;5072097;28;42968;-80
2021/06/12 00:44:34;;;;;;;1.60;1.50;;;;;;;19.05;65.95;99054.94;5071602;28;41954;-84
2021/06/12 00:47:04;;;;;;;1.83;1.60;;;;;;;19.01;65.72;99062.47;5071055;28;39862;-79
2021/06/12 00:49:31;;;;;;;1.53;1.43;;;;;;;18.98;65.70;99052.84;5065035;28;41733;-78
2021/06/12 00:51:58;;;;;;;1.57;1.47;;;;;;;18.96;65.51;99062.88;5049886;28;42411;-78
2021/06/12 00:54:26;;;;;;;1.30;1.20;;;;;;;18.95;65.58;99060.34;5050275;28;43006;-82
2021/06/12 00:56:53;;;;;;;2.37;1.93;;;;;;;18.91;65.58;99057.13;5050692;28;40113;-78
2021/06/12 00:59:22;;;;;;;1.90;1.30;;;;;;;18.95;66.04;99063.88;5064191;28;41207;-75
2021/06/12 01:01:49;;;;;;;1.67;1.50;;;;;;;18.88;66.05;99048.50;5069187;28;43483;-76
2021/06/12 01:04:18;;;;;;;2.20;1.50;;;;;;;18.93;65.82;99068.53;5083468;28;41261;-75
2021/06/12 01:06:49;;;;;;;1.30;1.20;;;;;;;18.94;66.69;99059.50;5052317;28;38845;-76
2021/06/12 01:09:17;;;;;;;1.33;1.23;;;;;;;18.96;66.24;99065.56;5100856;28;43235;-76
2021/06/12 01:11:55;;;;;;;1.70;1.40;;;;;;;18.98;66.72;99058.22;5068633;28;42935;-75
2021/06/12 01:14:25;;;;;;;2.40;1.47;;;;;;;18.99;66.51;99062.59;5083297;28;42336;-75
2021/06/12 01:16:59;;;;;;;1.80;1.70;;;;;;;18.93;66.39;99047.06;5086796;28;40578;-76
2021/06/12 01:19:50;;;;;;;1.50;1.07;;;;;;;19.05;66.54;99054.94;5079182;28;41710;-79
2021/06/12 01:22:22;;;;;;;2.63;1.30;;;;;;;19.04;66.36;99058.66;5078171;28;43171;-82
2021/06/12 01:25:04;;;;;;;1.27;1.23;;;;;;;18.98;66.16;99043.94;5091705;28;41422;-79
2021/06/12 01:28:02;;;;;;;1.33;1.23;;;;;;;19.08;66.52;99065.41;5075559;28;40493;-79
2021/06/12 01:30:31;;;;;;;1.30;1.20;;;;;;;19.06;66.11;99051.28;5077304;28;42004;-77
2021/06/12 01:33:01;;;;;;;1.30;1.20;;;;;;;18.99;67.29;99041.13;5076453;28;43349;-76
2021/06/12 01:35:33;;;;;;;1.70;1.60;;;;;;;19.05;66.88;99050.44;5091134;28;40536;-76
2021/06/12 01:38:02;;;;;;;1.53;1.40;;;;;;;19.04;66.46;99045.22;5068547;28;40654;-78
2021/06/12 01:40:32;;;;;;;1.43;1.33;;;;;;;19.02;66.60;99054.28;5064760;28;42406;-79
2021/06/12 01:43:02;;;;;;;0.83;0.83;;;;;;;19.02;66.12;99043.53;5081555;28;42453;-79
2021/06/12 01:45:31;;;;;;;1.50;1.30;;;;;;;19.00;66.34;99048.19;5053975;28;42003;-81
2021/06/12 01:48:00;;;;;;;1.10;1.00;;;;;;;18.98;66.52;99058.22;5070859;28;40006;-82
2021/06/12 01:50:29;;;;;;;1.00;1.00;;;;;;;18.97;66.65;99053.00;5069813;28;42385;-80
2021/06/12 01:52:58;;;;;;;2.00;1.73;;;;;;;18.95;66.24;99054.97;5052585;28;41952;-78
2021/06/12 01:55:28;;;;;;;1.17;1.10;;;;;;;18.94;65.95;99055.97;5065160;28;42016;-78
2021/06/12 01:57:56;;;;;;;0.83;0.83;;;;;;;18.92;65.87;99049.88;5081967;28;39595;-79
2021/06/12 02:00:24;;;;;;;1.13;1.00;;;;;;;18.89;65.93;99052.88;5048397;28;41585;-81
2021/06/12 02:02:54;;;;;;;0.90;0.90;;;;;;;18.89;65.82;99056.41;5052296;28;42303;-80
2021/06/12 02:05:23;;;;;;;0.90;0.90;;;;;;;18.87;65.95;99058.38;5066718;28;43045;-82
2021/06/12 02:07:52;;;;;;;1.00;1.00;;;;;;;18.87;65.66;99055.69;5085790;28;39157;-76
2021/06/12 02:10:22;;;;;;;0.80;0.80;;;;;;;18.87;65.46;99053.00;5064258;28;42097;-78
2021/06/12 02:12:50;;;;;;;1.00;1.00;;;;;;;18.86;65.77;99053.16;5065625;28;42658;-81
2021/06/12 02:15:19;;;;;;;1.30;1.20;;;;;;;18.84;65.97;99052.44;5049662;28;43020;-81
2021/06/12 02:17:48;;;;;;;0.87;0.73;;;;;;;18.72;65.72;99038.34;5047911;28;40772;-79
2021/06/12 02:20:16;;;;;;;0.73;0.73;;;;;;;18.82;65.78;99049.91;5055701;28;41793;-79
2021/06/12 02:22:46;;;;;;;2.87;1.53;;;;;;;18.82;65.64;99055.28;5069683;28;43544;-83
2021/06/12 02:25:15;;;;;;;0.67;0.63;;;;;;;18.78;65.50;99045.84;5051490;28;42231;-84
2021/06/12 02:27:47;;;;;;;0.80;0.80;;;;;;;18.82;65.50;99054.44;5085378;28;39668;-82
2021/06/12 02:30:15;;;;;;;1.43;1.23;;;;;;;18.79;65.37;99047.50;5084723;28;41718;-80
2021/06/12 02:32:47;;;;;;;0.90;0.80;;;;;;;18.79;65.68;99044.81;5069769;28;42429;-79
2021/06/12 02:35:14;;;;;;;0.60;0.60;;;;;;;18.77;65.79;99038.78;5064303;28;41450;-82
2021/06/12 02:37:45;;;;;;;1.10;1.00;;;;;;;18.76;65.85;99039.75;5031669;28;39092;-81
2021/06/12 02:40:12;;;;;;;1.77;1.33;;;;;;;18.74;66.14;99025.63;5081792;28;41670;-77
2021/06/12 02:42:40;;;;;;;0.80;0.80;;;;;;;18.74;66.11;99019.41;5081261;28;42413;-82
2021/06/12 02:45:10;;;;;;;1.00;0.90;;;;;;;18.71;66.21;99036.66;5093713;28;42004;-80
2021/06/12 02:47:42;;;;;;;1.43;1.33;;;;;;;18.67;66.54;99033.38;5052352;28;38798;-80
2021/06/12 02:50:13;;;;;;;1.50;1.13;;;;;;;18.64;66.41;99040.91;5067235;28;42482;-79
2021/06/12 02:52:44;;;;;;;1.23;1.17;;;;;;;18.61;66.26;99041.19;5069367;28;42485;-85
2021/06/12 02:55:14;;;;;;;1.30;1.17;;;;;;;18.58;66.55;99036.09;5066785;28;42288;-81
2021/06/12 02:57:46;;;;;;;1.37;1.27;;;;;;;18.55;66.39;99042.53;5051351;28;39074;-80
2021/06/12 03:00:15;;;;;;;1.27;1.17;;;;;;;18.54;66.24;99042.72;5068619;28;41979;-79
2021/06/12 03:02:43;;;;;;;0.77;0.77;;;;;;;18.50;66.54;99041.28;5067511;28;42641;-84
2021/06/12 03:05:15;;;;;;;1.30;1.20;;;;;;;18.46;66.72;99046.09;5084047;28;42554;-77
2021/06/12 03:07:48;;;;;;;1.30;1.23;;;;;;;18.43;66.57;99040.16;5068138;28;39359;-79
2021/06/12 03:10:17;;;;;;;0.97;0.87;;;;;;;18.40;66.65;99048.50;5084093;28;40713;-79
2021/06/12 03:12:46;;;;;;;1.20;1.10;;;;;;;18.34;66.55;99043.69;5050725;28;41743;-78
2021/06/12 03:15:14;;;;;;;2.00;0.90;;;;;;;18.31;66.47;99051.00;5047122;28;40888;-81
2021/06/12 03:17:44;;;;;;;0.97;0.87;;;;;;;18.26;66.85;99047.91;5046178;28;40745;-79
2021/06/12 03:20:12;;;;;;;1.27;1.17;;;;;;;18.23;66.44;99048.19;5048196;28;41833;-82
2021/06/12 03:22:41;;;;;;;1.37;1.37;;;;;;;18.21;66.66;99054.66;5077248;28;41981;-81
2021/06/12 03:25:12;;;;;;;0.57;0.57;;;;;;;18.08;66.62;99033.50;5084179;28;40935;-81
2021/06/12 03:27:41;;;;;;;1.10;0.97;;;;;;;18.18;66.86;99044.22;5086107;28;39217;-81
2021/06/12 03:30:09;;;;;;;1.70;1.60;;;;;;;18.17;67.50;99037.19;5069813;28;41379;-82
2021/06/12 03:32:38;;;;;;;0.97;0.93;;;;;;;18.17;67.53;99038.03;5088045;28;42136;-82
2021/06/12 03:35:08;;;;;;;2.07;1.37;;;;;;;18.20;67.35;99043.09;5070103;28;42962;-82
2021/06/12 03:37:36;;;;;;;1.00;1.00;;;;;;;18.23;67.08;99042.81;5070558;28;39619;-80
2021/06/12 03:40:04;;;;;;;0.97;0.93;;;;;;;18.25;67.30;99040.84;5070278;28;40618;-81
2021/06/12 03:42:33;;;;;;;1.40;1.30;;;;;;;18.27;67.73;99038.88;5087833;28;41954;-81
2021/06/12 03:45:03;;;;;;;1.33;1.23;;;;;;;18.31;67.53;99039.44;5070461;28;42385;-81
2021/06/12 03:47:32;;;;;;;1.63;1.47;;;;;;;18.35;68.21;99034.66;5071866;28;39604;-82
2021/06/12 03:50:00;;;;;;;1.03;0.97;;;;;;;18.36;67.79;99042.56;5069658;28;42338;-77
2021/06/12 03:52:29;;;;;;;1.20;1.10;;;;;;;18.41;67.65;99044.81;5071138;28;41668;-78
2021/06/12 03:54:57;;;;;;;1.37;1.27;;;;;;;18.42;67.52;99051.88;5087668;28;41897;-80
2021/06/12 03:57:24;;;;;;;1.47;1.37;;;;;;;18.40;67.56;99037.78;5072589;28;40696;-82
2021/06/12 03:59:54;;;;;;;1.10;1.10;;;;;;;18.50;67.55;99062.75;5072224;28;41703;-79
2021/06/12 04:02:20;;;;;;;1.20;1.10;;;;;;;18.47;67.24;99047.78;5066377;28;42761;-78
2021/06/12 04:04:49;;;;;;;1.50;1.10;;;;;;;18.48;67.18;99048.63;5052674;28;42229;-80
2021/06/12 04:07:17;;;;;;;1.03;0.93;;;;;;;18.63;67.22;99061.50;5050765;28;39889;-79
2021/06/12 04:09:45;;;;;;;0.80;0.80;;;;;;;18.68;67.17;99063.75;5087632;28;40765;-77
2021/06/12 04:12:14;;;;;;;1.23;1.03;;;;;;;18.70;67.16;99067.16;5070044;28;42876;-80
2021/06/12 04:14:41;;;;;;;0.90;0.90;;;;;;;18.73;67.12;99072.22;5069794;28;42271;-80
2021/06/12 04:17:09;;;;;;;1.40;1.30;;;;;;;18.77;67.17;99068.28;5087387;28;38993;-80
2021/06/12 04:19:38;;;;;;;1.10;1.10;;;;;;;18.83;66.79;99066.84;5069433;28;42226;-82
2021/06/12 04:22:06;;;;;;;1.30;1.20;;;;;;;18.91;67.21;99067.84;5069405;28;42465;-78
2021/06/12 04:24:33;;;;;;;1.33;1.27;;;;;;;18.98;67.50;99060.91;5071879;28;42140;-81
2021/06/12 04:27:00;;;;;;;1.20;1.10;;;;;;;19.09;67.50;99061.72;5071272;28;39892;-81
2021/06/12 04:29:28;;;;;;;1.33;1.27;;;;;;;19.18;66.93;99061.69;5069364;28;42292;-83
2021/06/12 04:31:55;;;;;;;1.23;1.13;;;;;;;19.26;67.14;99077.97;5071269;28;42692;-80
2021/06/12 04:34:23;;;;;;;0.90;0.90;;;;;;;19.34;66.90;99085.28;5070184;28;41648;-77
2021/06/12 04:36:51;;;;;;;1.20;1.10;;;;;;;19.42;66.92;99080.00;5068963;28;38900;-82
2021/06/12 04:39:18;;;;;;;0.93;0.93;;;;;;;19.50;66.87;99080.16;5065871;28;41707;-78
2021/06/12 04:41:46;;;;;;;1.00;1.00;;;;;;;19.58;66.62;99072.22;5066677;28;42113;-80
2021/06/12 04:44:13;;;;;;;2.53;1.57;;;;;;;19.67;66.60;99067.78;5049782;28;41301;-82
2021/06/12 04:46:42;;;;;;;2.37;2.17;;;;;;;19.76;67.20;99066.06;5051080;28;40846;-80
2021/06/12 04:49:09;;;;;;;2.63;1.90;;;;;;;19.73;66.88;99054.63;5048765;28;41249;-83
2021/06/12 04:51:38;;;;;;;2.07;1.90;;;;;;;19.76;66.75;99050.78;5066933;28;41623;-80
2021/06/12 04:54:05;;;;;;;2.50;1.97;;;;;;;19.86;66.90;99051.59;5055664;28;42322;-82
2021/06/12 04:56:32;;;;;;;1.73;1.63;;;;;;;20.01;66.38;99062.69;5070328;28;39861;-76
2021/06/12 04:59:00;;;;;;;1.30;1.20;;;;;;;20.07;66.37;99054.84;5071673;28;41648;-79
2021/06/12 05:01:27;;;;;;;1.20;1.10;;;;;;;20.19;65.98;99066.22;5069908;28;42971;-79
2021/06/12 05:03:54;;;;;;;1.97;1.77;;;;;;;20.26;66.22;99063.78;5049718;28;42090;-77
2021/06/12 05:06:21;;;;;;;1.80;1.70;;;;;;;20.26;66.29;99063.78;5049831;28;39767;-80
2021/06/12 05:08:50;;;;;;;1.77;1.60;;;;;;;20.31;65.97;99062.31;5049369;28;41475;-80
2021/06/12 05:11:17;;;;;;;1.70;1.60;;;;;;;20.45;65.77;99069.06;5070682;28;43387;-81
2021/06/12 05:13:45;;;;;;;2.07;1.40;;;;;;;20.60;65.64;99069.38;5069403;28;42969;-83
2021/06/12 05:16:12;;;;;;;1.67;1.43;;;;;;;20.70;64.92;99062.06;5051887;28;39873;-77
2021/06/12 05:18:41;;;;;;;1.00;1.00;;;;;;;20.83;64.92;99062.50;5085873;28;40715;-80
2021/06/12 05:21:09;;;;;;;1.63;1.50;;;;;;;20.90;65.05;99054.63;5052688;28;41739;-82
2021/06/12 05:23:37;;;;;;;1.33;1.23;;;;;;;21.07;64.54;99068.09;5068201;28;42099;-81
2021/06/12 05:26:06;;;;;;;1.70;1.40;;;;;;;21.10;64.22;99065.09;5069009;28;39856;-82
2021/06/12 05:28:34;;;;;;;1.73;1.63;;;;;;;21.06;63.80;99052.94;5068665;28;41791;-80
2021/06/12 05:31:01;;;;;;;1.50;1.40;;;;;;;21.21;63.80;99072.09;5052474;28;41533;-82
2021/06/12 05:33:30;;;;;;;1.00;1.00;;;;;;;21.31;63.96;99071.97;5070390;28;42058;-81
2021/06/12 05:35:58;;;;;;;1.57;1.30;;;;;;;21.39;63.64;99070.16;5052222;28;40158;-78
2021/06/12 05:38:26;;;;;;;1.30;1.30;;;;;;;21.49;63.23;99070.94;5068648;28;41531;-78
2021/06/12 05:40:54;;;;;;;1.87;1.67;;;;;;;21.64;63.16;99073.84;5051675;28;42198;-82
2021/06/12 05:43:23;;;;;;;1.40;1.30;;;;;;;21.84;62.43;99085.25;5069327;28;42943;-78
2021/06/12 05:45:51;;;;;;;1.40;1.13;;;;;;;22.03;62.22;99074.22;5052043;28;38975;-85
2021/06/12 05:48:18;;;;;;;1.60;1.30;;;;;;;22.19;61.41;99084.22;5086067;28;41619;-77
2021/06/12 05:50:45;;;;;;;1.30;1.20;;;;;;;22.24;60.96;99068.41;5069585;28;43546;-82
2021/06/12 05:53:13;;;;;;;1.40;1.30;;;;;;;22.42;60.15;99074.50;5048705;28;41974;-80
2021/06/12 05:55:40;;;;;;;1.03;1.03;;;;;;;22.51;60.08;99078.91;5050647;28;40848;-76
2021/06/12 05:58:07;;;;;;;1.13;1.10;;;;;;;22.79;59.46;99082.16;5065374;28;40570;-82
2021/06/12 06:00:36;;;;;;;1.30;1.20;;;;;;;22.95;58.77;99075.94;5081805;28;42217;-81
2021/06/12 06:03:04;;;;;;;1.37;1.27;;;;;;;23.22;58.13;99083.69;5069973;28;42310;-79
2021/06/12 06:05:31;;;;;;;2.50;1.93;;;;;;;23.42;58.20;99094.13;5068440;28;39055;-80
2021/06/12 06:07:58;;;;;;;1.27;1.20;;;;;;;23.43;57.56;99090.41;5069982;28;42363;-85
2021/06/12 06:10:26;;;;;;;1.07;1.07;;;;;;;23.45;57.09;99083.81;5067469;28;42296;-78
2021/06/12 06:12:53;;;;;;;1.50;1.40;;;;;;;23.61;57.36;99083.78;5068534;28;42232;-82
2021/06/12 06:15:20;;;;;;;0.80;0.80;;;;;;;23.78;57.29;99086.44;5067750;28;39759;-79
2021/06/12 06:17:49;;;;;;;1.37;1.27;;;;;;;23.80;57.49;99082.56;5052178;28;40664;-78
2021/06/12 06:20:16;;;;;;;1.30;1.20;;;;;;;23.91;57.32;99084.03;5067561;28;42496;-80
2021/06/12 06:22:43;;;;;;;1.53;1.43;;;;;;;23.97;57.24;99089.63;5069039;28;42182;-81
2021/06/12 06:25:12;;;;;;;1.70;1.60;;;;;;;24.03;56.63;99084.50;5069359;28;40969;-78
2021/06/12 06:27:39;;;;;;;1.60;1.50;;;;;;;24.08;56.48;99079.41;5085291;28;41255;-82
2021/06/12 06:30:08;;;;;;;1.70;1.60;;;;;;;24.29;55.90;99083.22;5050124;28;42937;-80
2021/06/12 06:32:35;;;;;;;1.60;1.50;;;;;;;24.45;54.10;99079.59;5068195;28;41149;-79
2021/06/12 06:35:05;;;;;;;1.13;1.10;;;;;;;24.64;54.08;99087.22;5085341;28;40639;-78
2021/06/12 06:37:32;;;;;;;1.53;1.43;;;;;;;24.74;53.87;99092.41;5102946;27;42021;-80
2021/06/12 06:39:59;;;;;;;1.80;1.70;;;;;;;24.80;53.85;99091.69;5068293;28;42787;-76
2021/06/12 06:42:27;;;;;;;1.53;1.40;;;;;;;24.91;54.11;99093.13;5080053;28;42919;-84
2021/06/12 06:44:54;;;;;;;1.40;1.10;;;;;;;25.15;53.44;99094.81;5069453;28;39685;-78
2021/06/12 06:47:22;;;;;;;1.67;1.53;;;;;;;25.37;52.73;99102.91;5068335;28;41862;-80
2021/06/12 06:49:49;;;;;;;1.60;1.50;;;;;;;25.57;52.56;99105.09;5067216;28;42413;-79
2021/06/12 06:52:18;;;;;;;1.70;1.60;;;;;;;25.69;51.16;99125.34;5067955;28;42207;-78
2021/06/12 06:54:45;;;;;;;1.27;1.27;;;;;;;25.81;51.28;99123.88;5067691;28;39954;-79
2021/06/12 06:57:12;;;;;;;1.50;1.40;;;;;;;26.08;51.02;99117.78;5050726;28;41822;-78
2021/06/12 06:59:39;;;;;;;1.50;1.40;;;;;;;26.32;49.90;99121.25;5069302;28;42689;-77
2021/06/12 07:02:07;;;;;;;1.27;1.17;;;;;;;26.68;49.65;99121.25;5068183;28;42715;-75
2021/06/12 07:04:36;;;;;;;1.57;1.47;;;;;;;27.16;48.56;99125.09;5089131;28;39225;-83
2021/06/12 07:07:04;;;;;;;1.20;1.20;;;;;;;27.39;48.22;99130.31;5073216;28;41618;-78
2021/06/12 07:09:33;;;;;;;1.17;1.17;;;;;;;27.44;48.31;99133.28;5066766;28;42505;-78
2021/06/12 07:12:01;;;;;;;2.13;1.10;;;;;;;27.54;48.22;99128.34;5051958;28;42202;-82
2021/06/12 07:14:29;;;;;;;1.30;1.20;;;;;;;27.60;47.89;99126.72;5048029;28;40815;-78
2021/06/12 07:16:56;;;;;;;2.00;1.50;;;;;;;27.59;48.07;99135.94;5067773;28;41004;-82
2021/06/12 07:19:23;;;;;;;1.10;1.10;;;;;;;27.45;48.34;99133.06;5065278;28;43466;-83
2021/06/12 07:21:51;;;;;;;0.97;0.97;;;;;;;27.67;48.03;99136.66;5072498;28;42838;-82
2021/06/12 07:24:18;;;;;;;1.10;1.00;;;;;;;28.04;47.64;99140.84;5071889;28;40605;-80
2021/06/12 07:26:46;;;;;;;1.17;1.07;;;;;;;28.55;47.17;99133.16;5050374;28;40635;-81
2021/06/12 07:29:13;;;;;;;1.43;1.30;;;;;;;29.17;45.60;99142.16;5050852;28;43489;-77
2021/06/12 07:31:42;;;;;;;1.13;1.13;;;;;;;29.34;44.52;99148.84;5050639;28;42072;-78
2021/06/12 07:34:10;;;;;;;1.40;1.30;;;;;;;29.53;44.75;99136.31;5063541;28;39350;-82
2021/06/12 07:36:40;;;;;;;1.60;1.50;;;;;;;29.61;44.42;99138.81;5054490;28;40922;-77
2021/06/12 07:39:08;;;;;;;1.13;1.03;;;;;;;29.82;43.71;99151.38;5070095;28;43364;-78
2021/06/12 07:41:37;;;;;;;1.40;1.30;;;;;;;30.39;42.98;99145.19;5072328;28;41981;-76
2021/06/12 07:44:06;;;;;;;1.30;1.20;;;;;;;31.36;40.73;99163.19;5068600;28;39593;-82
2021/06/12 07:46:34;;;;;;;1.40;1.30;;;;;;;32.40;38.85;99176.97;5054622;28;40546;-81
2021/06/12 07:49:03;;;;;;;1.53;1.43;;;;;;;33.57;36.61;99180.25;5069455;28;42422;-77
2021/06/12 07:51:33;;;;;;;1.20;1.10;;;;;;;35.04;34.70;99193.75;5054046;28;41547;-80
2021/06/12 07:54:00;;;;;;;1.47;1.37;;;;;;;36.20;33.19;99189.44;5066355;28;39875;-83
2021/06/12 07:56:27;;;;;;;1.20;1.20;;;;;;;37.26;30.63;99201.88;5051157;28;40825;-78
2021/06/12 07:58:54;;;;;;;1.70;1.60;;;;;;;38.05;30.22;99202.03;5095466;28;41751;-80
2021/06/12 08:01:23;;;;;;;1.27;1.17;;;;;;;38.50;30.00;99208.94;5069381;28;42941;-77
2021/06/12 08:03:50;;;;;;;1.97;1.80;;;;;;;38.32;29.45;99206.66;5071448;28;41430;-76
2021/06/12 08:06:17;;;;;;;1.60;1.50;;;;;;;37.53;30.08;99203.78;5071171;28;41900;-77
2021/06/12 08:08:44;;;;;;;0.97;0.97;;;;;;;36.92;30.73;99200.38;5069222;28;42695;-78
2021/06/12 08:11:11;;;;;;;1.33;1.33;;;;;;;36.54;30.96;99191.03;5068259;28;42049;-79
2021/06/12 08:13:38;;;;;;;1.10;1.10;;;;;;;36.29;32.72;99182.44;5070095;28;39876;-81
2021/06/12 08:16:06;;;;;;;1.33;1.23;;;;;;;36.44;32.08;99190.06;5071129;28;42168;-79
2021/06/12 08:18:34;;;;;;;1.20;1.20;;;;;;;37.15;31.80;99186.25;5053010;28;41997;-77
2021/06/12 08:21:02;;;;;;;1.00;1.00;;;;;;;38.04;30.67;99203.13;5052341;28;41851;-82
2021/06/12 08:23:29;;;;;;;1.53;1.40;;;;;;;38.94;27.50;99228.00;5069466;28;39025;-84
2021/06/12 08:25:57;;;;;;;2.30;1.50;;;;;;;38.90;27.71;99207.50;5069302;28;41491;-85
2021/06/12 08:28:24;;;;;;;1.37;1.27;;;;;;;39.12;27.40;99214.50;5069785;28;43275;-79
2021/06/12 08:30:51;;;;;;;1.40;1.27;;;;;;;38.82;27.45;99199.72;5048200;28;41594;-83
2021/06/12 08:33:18;;;;;;;1.40;1.30;;;;;;;38.25;28.46;99192.19;5050408;28;40559;-79
2021/06/12 08:35:46;;;;;;;1.73;1.40;;;;;;;38.18;28.86;99183.31;5050851;28;41834;-82
2021/06/12 08:38:14;;;;;;;1.60;1.50;;;;;;;38.06;29.10;99175.19;5049522;28;41351;-79
2021/06/12 08:40:41;;;;;;;2.07;1.90;;;;;;;38.26;29.37;99164.28;5082136;28;42894;-78
2021/06/12 08:43:09;;;;;;;1.43;1.27;;;;;;;38.69;28.64;99137.38;5049554;28;40431;-84
2021/06/12 08:45:40;;;;;;;1.13;1.13;;;;;;;39.78;27.01;99152.78;5051528;28;41676;-83
2021/06/12 08:48:08;;;;;;;1.25;1.17;;;;;;;40.55;25.63;99185.63;5056295;28;42563;-83
2021/06/12 08:50:36;;;;;;;1.55;1.45;;;;;;;41.65;24.60;99176.19;5066694;28;42147;-81
2021/06/12 08:53:04;;;;;;;1.55;1.48;;;;;;;42.48;24.05;99175.91;5069799;28;41331;-79
2021/06/12 08:55:32;;;;;;;1.25;1.15;;;;;;;42.79;22.48;99190.28;5053300;28;42184;-78
2021/06/12 08:57:59;;;;;;;1.00;1.00;;;;;;;43.14;22.09;99189.00;5102684;28;42489;-79
2021/06/12 09:00:26;;;;;;;0.93;0.93;;;;;;;42.90;21.24;99191.84;5070847;28;42262;-85
2021/06/12 09:03:12;;;;;;;1.23;1.13;;;;;;;42.01;22.57;99187.84;5070442;28;39532;-84
2021/06/12 09:05:41;;;;;;;1.10;1.10;;;;;;;41.20;23.51;99180.09;5086134;28;41710;-85
2021/06/12 09:08:11;;;;;;;1.10;1.10;;;;;;;41.38;23.86;99165.50;5050668;28;41929;-83
2021/06/12 09:11:03;;;;;;;0.93;0.93;;;;;;;41.79;23.29;99165.19;5069217;28;41939;-83
2021/06/12 09:13:53;;;;;;;1.20;1.10;;;;;;;41.99;22.58;99170.59;5050552;28;38918;-81
2021/06/12 09:16:33;;;;;;;1.13;1.13;;;;;;;42.50;22.92;99179.22;5051474;28;40930;-81
2021/06/12 09:19:05;;;;;;;1.40;1.30;;;;;;;42.82;23.12;99167.41;5051918;28;41437;-81
2021/06/12 09:21:34;;;;;;;1.52;1.42;;;;;;;42.79;23.18;99167.19;5049645;28;41567;-86
2021/06/12 09:24:06;;;;;;;1.30;1.27;;;;;;;42.29;22.70;99181.38;5083137;28;38850;-79
2021/06/12 09:26:46;;;;;;;1.05;1.05;;;;;;;42.25;23.58;99180.34;5050965;28;41509;-82
2021/06/12 09:29:17;;;;;;;1.08;1.08;;;;;;;42.38;23.75;99183.56;5048525;28;43521;-83
2021/06/12 09:31:46;;;;;;;0.93;0.93;;;;;;;42.30;23.45;99180.25;5049282;28;43005;-84
2021/06/12 09:34:16;;;;;;;1.40;1.30;;;;;;;41.59;23.94;99194.84;5100980;28;38708;-83
2021/06/12 09:36:44;;;;;;;1.13;1.08;;;;;;;41.63;24.18;99181.19;5085215;28;40248;-84
2021/06/12 09:39:15;;;;;;;1.38;1.27;;;;;;;41.74;24.01;99176.38;5067751;28;42488;-85
2021/06/12 09:41:44;;;;;;;1.10;1.10;;;;;;;41.93;23.48;99171.72;5070027;28;42109;-81
2021/06/12 09:44:11;;;;;;;1.00;1.00;;;;;;;42.41;22.53;99178.22;5085051;28;41064;-82
2021/06/12 09:46:44;;;;;;;1.00;1.00;;;;;;;42.47;21.97;99193.75;5060545;28;42208;-84
2021/06/12 09:49:14;;;;;;;1.05;1.05;;;;;;;42.39;22.37;99190.78;5066856;28;42640;-78
2021/06/12 09:52:01;;;;;;;1.52;1.42;;;;;;;42.85;21.85;99177.97;5068496;28;41524;-80
2021/06/12 09:54:51;;;;;;;0.93;0.93;;;;;;;42.94;22.34;99176.16;5068421;28;40749;-84
2021/06/12 09:57:21;;;;;;;0.80;0.80;;;;;;;42.61;22.17;99177.16;5068956;28;41827;-79
2021/06/12 09:59:50;;;;;;;1.05;1.05;;;;;;;41.54;23.50;99164.31;5085733;28;41516;-81
2021/06/12 10:02:36;;;;;;;1.00;1.00;;;;;;;41.08;24.68;99160.97;5067538;28;42178;-83
2021/06/12 10:05:05;;;;;;;0.73;0.73;;;;;;;40.74;25.03;99166.44;5068514;28;40032;-84
2021/06/12 10:07:33;;;;;;;0.90;0.90;;;;;;;39.88;25.25;99147.25;5067733;28;41112;-82
2021/06/12 10:10:05;;;;;;;0.90;0.90;;;;;;;39.95;25.57;99158.03;5068299;28;42348;-84
2021/06/12 10:12:34;;;;;;;1.00;0.90;;;;;;;39.23;25.67;99150.78;5069756;28;42698;-79
2021/06/12 10:15:02;;;;;;;0.90;0.90;;;;;;;38.65;26.71;99150.09;5051827;28;38969;-82
2021/06/12 10:17:33;;;;;;;0.80;0.80;;;;;;;38.40;26.97;99137.78;5094897;28;40575;-82
2021/06/12 10:20:01;;;;;;;0.90;0.90;;;;;;;38.29;27.09;99138.00;5050891;28;41733;-84
2021/06/12 10:22:29;;;;;;;1.00;1.00;;;;;;;37.97;28.04;99133.34;5068875;28;42069;-82
2021/06/12 10:24:56;;;;;;;5.03;1.40;;;;;;;37.83;29.76;99125.81;5067821;28;39600;-80
2021/06/12 10:27:27;;;;;;;1.00;1.00;;;;;;;37.76;28.26;99131.56;5050659;28;40626;-83
2021/06/12 10:29:54;;;;;;;1.00;1.00;;;;;;;37.47;27.47;99132.97;5084628;28;41753;-85
2021/06/12 10:32:22;;;;;;;1.00;1.00;;;;;;;37.01;28.61;99129.75;5083769;28;41175;-81
2021/06/12 10:34:51;;;;;;;0.83;0.80;;;;;;;36.88;29.19;99127.41;5067498;28;40982;-81
2021/06/12 10:37:19;;;;;;;1.17;1.17;;;;;;;37.07;30.28;99111.34;5084711;28;41013;-81
2021/06/12 10:39:47;;;;;;;1.00;1.00;;;;;;;37.24;29.57;99107.38;5050339;28;42073;-80
2021/06/12 10:42:17;;;;;;;1.20;1.10;;;;;;;36.92;28.68;99120.28;5067258;28;42401;-82
2021/06/12 10:44:48;;;;;;;0.90;0.90;;;;;;;36.47;28.83;99112.31;5067676;28;39598;-82
2021/06/12 10:47:40;;;;;;;0.80;0.80;;;;;;;36.24;28.70;99110.63;5068883;28;41398;-83
2021/06/12 10:50:30;;;;;;;0.63;0.63;;;;;;;35.91;29.20;99109.63;5049710;28;42695;-82
2021/06/12 10:53:22;;;;;;;0.80;0.80;;;;;;;35.83;29.87;99101.78;5082951;28;42470;-79
2021/06/12 10:55:51;;;;;;;0.60;0.60;;;;;;;35.91;29.75;99106.03;5067702;28;39583;-82
2021/06/12 10:58:41;;;;;;;1.10;1.00;;;;;;;35.97;30.24;99100.34;5066257;28;41689;-80
2021/06/12 11:01:12;;;;;;;1.27;1.20;;;;;;;36.01;31.79;99089.63;5084303;28;41668;-79
2021/06/12 11:03:51;;;;;;;1.00;1.00;;;;;;;36.11;31.04;99099.94;5084760;28;42388;-81
2021/06/12 11:06:35;;;;;;;0.80;0.80;;;;;;;36.23;30.32;99100.69;5069419;28;39711;-81
2021/06/12 11:09:38;;;;;;;1.53;1.00;;;;;;;36.11;31.37;99097.19;5066778;28;41662;-80
2021/06/12 11:12:34;;;;;;;0.90;0.90;;;;;;;35.59;31.20;99094.78;5066869;28;42304;-77
2021/06/12 11:15:08;;;;;;;1.00;1.00;;;;;;;35.64;30.82;99092.09;5067509;28;42389;-83
2021/06/12 11:17:38;;;;;;;0.80;0.80;;;;;;;35.47;31.01;99096.78;5063946;28;40022;-81
2021/06/12 11:20:32;;;;;;;0.70;0.70;;;;;;;35.04;30.89;99092.72;5048233;28;41505;-83
2021/06/12 11:23:03;;;;;;;0.80;0.80;;;;;;;34.89;30.35;99107.06;5044064;28;42505;-86
2021/06/12 11:25:55;;;;;;;0.70;0.70;;;;;;;35.16;32.75;99079.72;5083779;28;41123;-82
2021/06/12 11:28:30;;;;;;;1.27;1.07;;;;;;;35.45;31.13;99079.69;5049714;28;40111;-81
2021/06/12 11:31:34;;;;;;;0.90;0.87;;;;;;;35.68;31.21;99076.72;5067592;28;42356;-78
2021/06/12 11:34:22;;;;;;;0.57;0.57;;;;;;;35.73;30.07;99087.84;5009173;28;42996;-84
2021/06/12 11:37:11;;;;;;;0.90;0.90;;;;;;;35.94;30.90;99087.06;4993186;28;41555;-85
2021/06/12 11:39:46;;;;;;;0.80;0.80;;;;;;;35.99;27.46;99106.41;5057340;28;40002;-78
2021/06/12 11:42:14;;;;;;;0.77;0.77;;;;;;;36.10;25.75;99123.13;5068103;28;41509;-80
2021/06/12 11:44:41;;;;;;;1.00;1.00;;;;;;;36.58;26.42;99119.63;5050827;28;41665;-79
2021/06/12 11:47:08;;;;;;;0.80;0.80;;;;;;;37.18;26.13;99113.13;5068774;28;42128;-85